Terminal Aerodrome Forecast
Issued by NWS

Home | Current Version | Previous Version | Text Only | Print | Product List | Glossary On
Versions: 1 2 3 4 5 6 7 8 9 10 11 12 13 14 15 16 17
000
FTUS44 KBMX 051309 AAA
TAFMGM
TAF AMD
KMGM 051309Z 0513/0612 00000KT 3SM BR SCT250
     FM051400 09004KT P6SM FEW030
     FM051900 10006KT P6SM VCTS BKN050CB=

USA.gov is the U.S. government's official web portal to all federal, state and local government web resources and services.